sensor_id;sensor_type;location;lat;lon;timestamp;temperature;humidity
33109;HTU21D;19481;51.118;6.940;2023-05-14T00:00:46;11.27;65.85
33109;HTU21D;19481;51.118;6.940;2023-05-14T00:05:49;11.17;65.88
33109;HTU21D;19481;51.118;6.940;2023-05-14T00:10:51;11.17;65.95
33109;HTU21D;19481;51.118;6.940;2023-05-14T00:15:53;11.09;66.20
33109;HTU21D;19481;51.118;6.940;2023-05-14T00:20:56;10.96;66.17
33109;HTU21D;19481;51.118;6.940;2023-05-14T00:25:57;11.00;65.93
33109;HTU21D;19481;51.118;6.940;2023-05-14T00:30:59;10.89;66.16
33109;HTU21D;19481;51.118;6.940;2023-05-14T00:36:02;10.80;66.12
33109;HTU21D;19481;51.118;6.940;2023-05-14T00:41:04;10.71;66.51
33109;HTU21D;19481;51.118;6.940;2023-05-14T00:46:05;10.69;66.38
33109;HTU21D;19481;51.118;6.940;2023-05-14T00:51:08;10.59;66.34
33109;HTU21D;19481;51.118;6.940;2023-05-14T00:56:10;10.70;66.59
33109;HTU21D;19481;51.118;6.940;2023-05-14T01:01:12;10.53;66.73
33109;HTU21D;19481;51.118;6.940;2023-05-14T01:06:20;10.38;66.75
33109;HTU21D;19481;51.118;6.940;2023-05-14T01:11:27;10.36;66.62
33109;HTU21D;19481;51.118;6.940;2023-05-14T01:16:32;10.29;66.62
33109;HTU21D;19481;51.118;6.940;2023-05-14T01:21:37;10.38;66.27
33109;HTU21D;19481;51.118;6.940;2023-05-14T01:26:40;10.27;66.60
33109;HTU21D;19481;51.118;6.940;2023-05-14T01:31:43;10.20;66.63
33109;HTU21D;19481;51.118;6.940;2023-05-14T01:36:47;9.98;67.27
33109;HTU21D;19481;51.118;6.940;2023-05-14T01:41:51;9.96;67.13
33109;HTU21D;19481;51.118;6.940;2023-05-14T01:46:52;9.93;67.23
33109;HTU21D;19481;51.118;6.940;2023-05-14T01:51:55;9.89;67.03
33109;HTU21D;19481;51.118;6.940;2023-05-14T01:56:57;9.86;67.12
33109;HTU21D;19481;51.118;6.940;2023-05-14T02:01:58;9.96;66.91
33109;HTU21D;19481;51.118;6.940;2023-05-14T02:07:01;9.85;66.92
33109;HTU21D;19481;51.118;6.940;2023-05-14T02:12:03;9.80;67.31
33109;HTU21D;19481;51.118;6.940;2023-05-14T02:17:05;9.72;67.43
33109;HTU21D;19481;51.118;6.940;2023-05-14T02:22:08;9.69;67.28
33109;HTU21D;19481;51.118;6.940;2023-05-14T02:27:09;9.67;67.50
33109;HTU21D;19481;51.118;6.940;2023-05-14T02:32:12;9.57;67.75
33109;HTU21D;19481;51.118;6.940;2023-05-14T02:37:15;9.51;67.45
33109;HTU21D;19481;51.118;6.940;2023-05-14T02:42:16;9.33;67.98
33109;HTU21D;19481;51.118;6.940;2023-05-14T02:47:18;9.22;68.17
33109;HTU21D;19481;51.118;6.940;2023-05-14T02:52:21;9.40;67.82
33109;HTU21D;19481;51.118;6.940;2023-05-14T02:57:23;9.45;68.19
33109;HTU21D;19481;51.118;6.940;2023-05-14T03:02:24;9.34;67.88
33109;HTU21D;19481;51.118;6.940;2023-05-14T03:07:27;9.20;67.69
33109;HTU21D;19481;51.118;6.940;2023-05-14T03:12:29;9.11;68.07
33109;HTU21D;19481;51.118;6.940;2023-05-14T03:17:30;9.03;68.40
33109;HTU21D;19481;51.118;6.940;2023-05-14T03:22:33;9.01;68.11
33109;HTU21D;19481;51.118;6.940;2023-05-14T03:27:35;8.86;68.61
33109;HTU21D;19481;51.118;6.940;2023-05-14T03:32:36;8.79;68.55
33109;HTU21D;19481;51.118;6.940;2023-05-14T03:37:39;8.81;68.36
33109;HTU21D;19481;51.118;6.940;2023-05-14T03:42:41;8.72;68.58
33109;HTU21D;19481;51.118;6.940;2023-05-14T03:47:42;8.61;68.68
33109;HTU21D;19481;51.118;6.940;2023-05-14T03:52:45;8.61;68.40
33109;HTU21D;19481;51.118;6.940;2023-05-14T03:57:47;8.71;68.65
33109;HTU21D;19481;51.118;6.940;2023-05-14T04:02:49;8.75;68.77
33109;HTU21D;19481;51.118;6.940;2023-05-14T04:07:52;8.71;68.63
33109;HTU21D;19481;51.118;6.940;2023-05-14T04:12:54;8.74;68.20
33109;HTU21D;19481;51.118;6.940;2023-05-14T04:17:55;8.67;68.42
33109;HTU21D;19481;51.118;6.940;2023-05-14T04:22:58;8.77;67.87
33109;HTU21D;19481;51.118;6.940;2023-05-14T04:28:00;8.72;68.24
33109;HTU21D;19481;51.118;6.940;2023-05-14T04:33:01;8.81;68.30
33109;HTU21D;19481;51.118;6.940;2023-05-14T04:38:04;8.98;67.60
33109;HTU21D;19481;51.118;6.940;2023-05-14T04:43:06;9.50;67.13
33109;HTU21D;19481;51.118;6.940;2023-05-14T04:48:08;11.67;61.26
33109;HTU21D;19481;51.118;6.940;2023-05-14T04:53:11;12.63;59.93
33109;HTU21D;19481;51.118;6.940;2023-05-14T04:58:12;10.92;66.75
33109;HTU21D;19481;51.118;6.940;2023-05-14T05:03:14;10.43;68.31
33109;HTU21D;19481;51.118;6.940;2023-05-14T05:08:17;10.34;67.78
33109;HTU21D;19481;51.118;6.940;2023-05-14T05:13:18;10.35;67.70
33109;HTU21D;19481;51.118;6.940;2023-05-14T05:18:20;10.46;66.72
33109;HTU21D;19481;51.118;6.940;2023-05-14T05:23:23;10.67;65.79
33109;HTU21D;19481;51.118;6.940;2023-05-14T05:28:25;10.92;65.20
33109;HTU21D;19481;51.118;6.940;2023-05-14T05:33:26;11.20;64.56
33109;HTU21D;19481;51.118;6.940;2023-05-14T05:38:29;11.54;63.67
33109;HTU21D;19481;51.118;6.940;2023-05-14T05:43:31;12.43;62.02
33109;HTU21D;19481;51.118;6.940;2023-05-14T05:48:33;12.97;61.32
33109;HTU21D;19481;51.118;6.940;2023-05-14T05:53:36;12.45;64.02
33109;HTU21D;19481;51.118;6.940;2023-05-14T05:58:38;12.64;63.89
33109;HTU21D;19481;51.118;6.940;2023-05-14T06:03:39;16.05;54.97
33109;HTU21D;19481;51.118;6.940;2023-05-14T06:08:42;17.18;55.16
33109;HTU21D;19481;51.118;6.940;2023-05-14T06:13:44;18.36;54.87
33109;HTU21D;19481;51.118;6.940;2023-05-14T06:18:45;19.33;54.61
33109;HTU21D;19481;51.118;6.940;2023-05-14T06:23:48;19.58;56.65
33109;HTU21D;19481;51.118;6.940;2023-05-14T06:28:50;20.43;56.05
33109;HTU21D;19481;51.118;6.940;2023-05-14T06:33:51;21.44;55.49
33109;HTU21D;19481;51.118;6.940;2023-05-14T06:38:54;21.78;56.14
33109;HTU21D;19481;51.118;6.940;2023-05-14T06:43:56;23.39;53.55
33109;HTU21D;19481;51.118;6.940;2023-05-14T06:48:58;22.94;56.48
33109;HTU21D;19481;51.118;6.940;2023-05-14T06:54:00;22.83;57.00
33109;HTU21D;19481;51.118;6.940;2023-05-14T06:59:02;22.42;58.74
33109;HTU21D;19481;51.118;6.940;2023-05-14T07:04:04;22.49;58.57
33109;HTU21D;19481;51.118;6.940;2023-05-14T07:09:07;22.69;56.19
33109;HTU21D;19481;51.118;6.940;2023-05-14T07:14:09;22.66;56.87
33109;HTU21D;19481;51.118;6.940;2023-05-14T07:19:11;23.32;54.42
33109;HTU21D;19481;51.118;6.940;2023-05-14T07:24:14;23.30;54.52
33109;HTU21D;19481;51.118;6.940;2023-05-14T07:29:16;22.68;56.87
33109;HTU21D;19481;51.118;6.940;2023-05-14T07:34:17;22.60;56.61
33109;HTU21D;19481;51.118;6.940;2023-05-14T07:39:20;22.75;51.70
33109;HTU21D;19481;51.118;6.940;2023-05-14T07:44:22;23.75;51.97
33109;HTU21D;19481;51.118;6.940;2023-05-14T07:49:23;23.52;52.04
33109;HTU21D;19481;51.118;6.940;2023-05-14T07:54:26;25.09;48.45
33109;HTU21D;19481;51.118;6.940;2023-05-14T07:59:28;24.88;50.11
33109;HTU21D;19481;51.118;6.940;2023-05-14T08:04:30;25.16;50.10
33109;HTU21D;19481;51.118;6.940;2023-05-14T08:09:33;25.71;48.73
33109;HTU21D;19481;51.118;6.940;2023-05-14T08:14:35;26.23;47.75
33109;HTU21D;19481;51.118;6.940;2023-05-14T08:19:37;25.73;49.44
33109;HTU21D;19481;51.118;6.940;2023-05-14T08:24:39;25.72;47.81
33109;HTU21D;19481;51.118;6.940;2023-05-14T08:29:42;26.51;46.53
33109;HTU21D;19481;51.118;6.940;2023-05-14T08:34:43;26.52;46.69
33109;HTU21D;19481;51.118;6.940;2023-05-14T08:39:46;26.75;45.98
33109;HTU21D;19481;51.118;6.940;2023-05-14T08:44:51;26.46;46.42
33109;HTU21D;19481;51.118;6.940;2023-05-14T08:49:59;27.30;40.82
33109;HTU21D;19481;51.118;6.940;2023-05-14T08:55:04;26.92;40.77
33109;HTU21D;19481;51.118;6.940;2023-05-14T09:00:08;27.25;42.29
33109;HTU21D;19481;51.118;6.940;2023-05-14T09:05:11;27.80;41.58
33109;HTU21D;19481;51.118;6.940;2023-05-14T09:10:15;27.17;38.08
33109;HTU21D;19481;51.118;6.940;2023-05-14T09:15:17;27.86;40.77
33109;HTU21D;19481;51.118;6.940;2023-05-14T09:20:19;28.42;39.62
33109;HTU21D;19481;51.118;6.940;2023-05-14T09:25:26;27.65;40.07
33109;HTU21D;19481;51.118;6.940;2023-05-14T09:30:28;26.39;44.32
33109;HTU21D;19481;51.118;6.940;2023-05-14T09:35:29;27.53;40.41
33109;HTU21D;19481;51.118;6.940;2023-05-14T09:40:33;26.77;39.91
33109;HTU21D;19481;51.118;6.940;2023-05-14T09:45:34;26.10;41.55
33109;HTU21D;19481;51.118;6.940;2023-05-14T09:50:40;25.48;40.09
33109;HTU21D;19481;51.118;6.940;2023-05-14T09:55:44;26.39;39.29
33109;HTU21D;19481;51.118;6.940;2023-05-14T10:00:46;25.97;39.96
33109;HTU21D;19481;51.118;6.940;2023-05-14T10:05:48;26.61;38.28
33109;HTU21D;19481;51.118;6.940;2023-05-14T10:10:53;25.24;39.59
33109;HTU21D;19481;51.118;6.940;2023-05-14T10:15:58;25.58;39.33
33109;HTU21D;19481;51.118;6.940;2023-05-14T10:21:03;26.43;37.22
33109;HTU21D;19481;51.118;6.940;2023-05-14T10:26:07;26.54;37.04
33109;HTU21D;19481;51.118;6.940;2023-05-14T10:31:09;26.31;38.08
33109;HTU21D;19481;51.118;6.940;2023-05-14T10:36:10;27.29;35.85
33109;HTU21D;19481;51.118;6.940;2023-05-14T10:41:14;27.35;36.08
33109;HTU21D;19481;51.118;6.940;2023-05-14T10:46:17;27.19;36.40
33109;HTU21D;19481;51.118;6.940;2023-05-14T10:51:18;27.49;35.83
33109;HTU21D;19481;51.118;6.940;2023-05-14T10:56:23;27.31;36.38
33109;HTU21D;19481;51.118;6.940;2023-05-14T11:01:26;27.41;36.01
33109;HTU21D;19481;51.118;6.940;2023-05-14T11:06:28;27.01;36.84
33109;HTU21D;19481;51.118;6.940;2023-05-14T11:11:32;27.12;36.35
33109;HTU21D;19481;51.118;6.940;2023-05-14T11:16:33;26.06;38.62
33109;HTU21D;19481;51.118;6.940;2023-05-14T11:21:36;26.09;37.72
33109;HTU21D;19481;51.118;6.940;2023-05-14T11:26:40;27.55;33.85
33109;HTU21D;19481;51.118;6.940;2023-05-14T11:31:41;27.91;33.41
33109;HTU21D;19481;51.118;6.940;2023-05-14T11:36:43;26.46;35.87
33109;HTU21D;19481;51.118;6.940;2023-05-14T11:41:46;25.98;35.82
33109;HTU21D;19481;51.118;6.940;2023-05-14T11:46:55;26.09;28.88
33109;HTU21D;19481;51.118;6.940;2023-05-14T11:51:56;26.55;33.09
33109;HTU21D;19481;51.118;6.940;2023-05-14T11:57:01;25.67;33.67
33109;HTU21D;19481;51.118;6.940;2023-05-14T12:02:03;25.67;34.05
33109;HTU21D;19481;51.118;6.940;2023-05-14T12:07:10;26.26;29.17
33109;HTU21D;19481;51.118;6.940;2023-05-14T12:12:14;26.39;20.36
33109;HTU21D;19481;51.118;6.940;2023-05-14T12:17:17;26.69;31.84
33109;HTU21D;19481;51.118;6.940;2023-05-14T12:22:20;26.85;31.44
33109;HTU21D;19481;51.118;6.940;2023-05-14T12:27:24;26.86;31.08
33109;HTU21D;19481;51.118;6.940;2023-05-14T12:32:26;26.23;31.80
33109;HTU21D;19481;51.118;6.940;2023-05-14T12:37:28;25.40;32.39
33109;HTU21D;19481;51.118;6.940;2023-05-14T12:42:30;25.51;31.57
33109;HTU21D;19481;51.118;6.940;2023-05-14T12:47:32;26.20;30.06
33109;HTU21D;19481;51.118;6.940;2023-05-14T12:52:34;26.36;30.04
33109;HTU21D;19481;51.118;6.940;2023-05-14T12:57:37;25.93;30.64
33109;HTU21D;19481;51.118;6.940;2023-05-14T13:02:39;25.04;32.50
33109;HTU21D;19481;51.118;6.940;2023-05-14T13:07:41;24.64;32.79
33109;HTU21D;19481;51.118;6.940;2023-05-14T13:12:44;25.39;30.51
33109;HTU21D;19481;51.118;6.940;2023-05-14T13:17:46;25.63;29.90
33109;HTU21D;19481;51.118;6.940;2023-05-14T13:22:47;24.94;30.97
33109;HTU21D;19481;51.118;6.940;2023-05-14T13:27:51;26.01;27.88
33109;HTU21D;19481;51.118;6.940;2023-05-14T13:32:52;25.80;29.74
33109;HTU21D;19481;51.118;6.940;2023-05-14T13:37:54;25.00;31.27
33109;HTU21D;19481;51.118;6.940;2023-05-14T13:42:57;24.58;31.76
33109;HTU21D;19481;51.118;6.940;2023-05-14T13:47:58;24.11;32.66
33109;HTU21D;19481;51.118;6.940;2023-05-14T13:53:00;24.98;30.44
33109;HTU21D;19481;51.118;6.940;2023-05-14T13:58:03;24.63;30.89
33109;HTU21D;19481;51.118;6.940;2023-05-14T14:03:05;24.64;30.59
33109;HTU21D;19481;51.118;6.940;2023-05-14T14:08:07;25.44;29.24
33109;HTU21D;19481;51.118;6.940;2023-05-14T14:13:10;25.53;29.00
33109;HTU21D;19481;51.118;6.940;2023-05-14T14:18:12;25.86;28.78
33109;HTU21D;19481;51.118;6.940;2023-05-14T14:23:13;25.61;29.16
33109;HTU21D;19481;51.118;6.940;2023-05-14T14:28:16;25.42;29.06
33109;HTU21D;19481;51.118;6.940;2023-05-14T14:33:18;25.21;29.90
33109;HTU21D;19481;51.118;6.940;2023-05-14T14:38:19;25.54;29.16
33109;HTU21D;19481;51.118;6.940;2023-05-14T14:43:22;25.19;29.72
33109;HTU21D;19481;51.118;6.940;2023-05-14T14:48:26;24.72;30.47
33109;HTU21D;19481;51.118;6.940;2023-05-14T14:53:30;24.13;31.52
33109;HTU21D;19481;51.118;6.940;2023-05-14T14:58:33;24.00;31.46
33109;HTU21D;19481;51.118;6.940;2023-05-14T15:03:35;24.36;30.72
33109;HTU21D;19481;51.118;6.940;2023-05-14T15:08:37;24.89;29.74
33109;HTU21D;19481;51.118;6.940;2023-05-14T15:13:40;24.60;30.22
33109;HTU21D;19481;51.118;6.940;2023-05-14T15:18:42;23.86;31.83
33109;HTU21D;19481;51.118;6.940;2023-05-14T15:23:43;23.59;31.96
33109;HTU21D;19481;51.118;6.940;2023-05-14T15:28:46;23.95;29.80
33109;HTU21D;19481;51.118;6.940;2023-05-14T15:33:48;23.91;30.77
33109;HTU21D;19481;51.118;6.940;2023-05-14T15:38:50;23.66;31.09
33109;HTU21D;19481;51.118;6.940;2023-05-14T15:43:53;23.62;29.96
33109;HTU21D;19481;51.118;6.940;2023-05-14T15:48:54;23.51;31.14
33109;HTU21D;19481;51.118;6.940;2023-05-14T15:53:56;23.32;31.14
33109;HTU21D;19481;51.118;6.940;2023-05-14T15:58:59;23.17;31.41
33109;HTU21D;19481;51.118;6.940;2023-05-14T16:04:00;23.17;31.41
33109;HTU21D;19481;51.118;6.940;2023-05-14T16:09:02;23.02;31.73
33109;HTU21D;19481;51.118;6.940;2023-05-14T16:14:06;22.82;31.99
33109;HTU21D;19481;51.118;6.940;2023-05-14T16:19:07;22.75;32.16
33109;HTU21D;19481;51.118;6.940;2023-05-14T16:24:09;22.79;32.19
33109;HTU21D;19481;51.118;6.940;2023-05-14T16:29:13;22.67;32.32
33109;HTU21D;19481;51.118;6.940;2023-05-14T16:34:15;22.69;32.39
33109;HTU21D;19481;51.118;6.940;2023-05-14T16:39:16;22.69;32.43
33109;HTU21D;19481;51.118;6.940;2023-05-14T16:44:19;22.54;32.53
33109;HTU21D;19481;51.118;6.940;2023-05-14T16:49:21;22.47;32.68
33109;HTU21D;19481;51.118;6.940;2023-05-14T16:54:22;22.38;32.76
33109;HTU21D;19481;51.118;6.940;2023-05-14T16:59:25;22.18;33.20
33109;HTU21D;19481;51.118;6.940;2023-05-14T17:04:27;22.01;33.51
33109;HTU21D;19481;51.118;6.940;2023-05-14T17:09:28;21.94;33.54
33109;HTU21D;19481;51.118;6.940;2023-05-14T17:14:31;21.81;33.61
33109;HTU21D;19481;51.118;6.940;2023-05-14T17:19:33;21.66;33.86
33109;HTU21D;19481;51.118;6.940;2023-05-14T17:24:34;21.58;33.83
33109;HTU21D;19481;51.118;6.940;2023-05-14T17:29:39;21.43;34.02
33109;HTU21D;19481;51.118;6.940;2023-05-14T17:34:41;21.33;34.21
33109;HTU21D;19481;51.118;6.940;2023-05-14T17:39:42;21.29;34.16
33109;HTU21D;19481;51.118;6.940;2023-05-14T17:44:47;21.22;34.23
33109;HTU21D;19481;51.118;6.940;2023-05-14T17:49:48;21.07;34.53
33109;HTU21D;19481;51.118;6.940;2023-05-14T17:54:51;21.04;34.43
33109;HTU21D;19481;51.118;6.940;2023-05-14T17:59:54;20.91;34.66
33109;HTU21D;19481;51.118;6.940;2023-05-14T18:04:55;20.81;34.84
33109;HTU21D;19481;51.118;6.940;2023-05-14T18:09:57;20.63;35.27
33109;HTU21D;19481;51.118;6.940;2023-05-14T18:15:00;20.56;35.23
33109;HTU21D;19481;51.118;6.940;2023-05-14T18:20:01;20.46;35.56
33109;HTU21D;19481;51.118;6.940;2023-05-14T18:25:04;20.37;35.70
33109;HTU21D;19481;51.118;6.940;2023-05-14T18:30:11;20.29;35.95
33109;HTU21D;19481;51.118;6.940;2023-05-14T18:35:13;20.30;35.82
33109;HTU21D;19481;51.118;6.940;2023-05-14T18:40:15;20.13;36.18
33109;HTU21D;19481;51.118;6.940;2023-05-14T18:45:18;19.95;36.49
33109;HTU21D;19481;51.118;6.940;2023-05-14T18:50:21;19.77;36.72
33109;HTU21D;19481;51.118;6.940;2023-05-14T18:55:22;19.35;37.98
33109;HTU21D;19481;51.118;6.940;2023-05-14T19:00:25;18.61;40.09
33109;HTU21D;19481;51.118;6.940;2023-05-14T19:05:27;18.29;40.71
33109;HTU21D;19481;51.118;6.940;2023-05-14T19:10:28;18.03;41.39
33109;HTU21D;19481;51.118;6.940;2023-05-14T19:15:31;17.90;41.83
33109;HTU21D;19481;51.118;6.940;2023-05-14T19:20:33;17.97;41.58
33109;HTU21D;19481;51.118;6.940;2023-05-14T19:25:35;17.74;42.62
33109;HTU21D;19481;51.118;6.940;2023-05-14T19:30:37;17.78;42.65
33109;HTU21D;19481;51.118;6.940;2023-05-14T19:35:39;17.89;42.34
33109;HTU21D;19481;51.118;6.940;2023-05-14T19:40:41;17.94;42.48
33109;HTU21D;19481;51.118;6.940;2023-05-14T19:45:44;17.82;43.23
33109;HTU21D;19481;51.118;6.940;2023-05-14T19:50:46;17.75;43.64
33109;HTU21D;19481;51.118;6.940;2023-05-14T19:55:47;17.72;44.06
33109;HTU21D;19481;51.118;6.940;2023-05-14T20:00:50;17.48;45.06
33109;HTU21D;19481;51.118;6.940;2023-05-14T20:05:55;17.34;45.41
33109;HTU21D;19481;51.118;6.940;2023-05-14T20:10:57;17.32;45.51
33109;HTU21D;19481;51.118;6.940;2023-05-14T20:16:00;17.20;45.98
33109;HTU21D;19481;51.118;6.940;2023-05-14T20:21:02;17.13;46.27
33109;HTU21D;19481;51.118;6.940;2023-05-14T20:26:04;17.15;46.26
33109;HTU21D;19481;51.118;6.940;2023-05-14T20:31:07;17.10;46.37
33109;HTU21D;19481;51.118;6.940;2023-05-14T20:36:09;16.98;46.73
33109;HTU21D;19481;51.118;6.940;2023-05-14T20:41:11;16.93;46.87
33109;HTU21D;19481;51.118;6.940;2023-05-14T20:46:14;16.73;47.73
33109;HTU21D;19481;51.118;6.940;2023-05-14T20:51:15;16.77;47.52
33109;HTU21D;19481;51.118;6.940;2023-05-14T20:56:17;16.91;47.05
33109;HTU21D;19481;51.118;6.940;2023-05-14T21:01:20;16.89;46.91
33109;HTU21D;19481;51.118;6.940;2023-05-14T21:06:22;16.98;46.52
33109;HTU21D;19481;51.118;6.940;2023-05-14T21:11:23;17.08;46.04
33109;HTU21D;19481;51.118;6.940;2023-05-14T21:16:26;17.06;45.96
33109;HTU21D;19481;51.118;6.940;2023-05-14T21:21:28;17.01;45.86
33109;HTU21D;19481;51.118;6.940;2023-05-14T21:26:30;16.91;46.02
33109;HTU21D;19481;51.118;6.940;2023-05-14T21:31:33;16.86;46.07
33109;HTU21D;19481;51.118;6.940;2023-05-14T21:36:35;16.70;46.61
33109;HTU21D;19481;51.118;6.940;2023-05-14T21:41:37;16.58;47.18
33109;HTU21D;19481;51.118;6.940;2023-05-14T21:46:40;16.40;48.04
33109;HTU21D;19481;51.118;6.940;2023-05-14T21:51:41;16.44;48.10
33109;HTU21D;19481;51.118;6.940;2023-05-14T21:56:43;16.17;49.12
33109;HTU21D;19481;51.118;6.940;2023-05-14T22:01:46;16.17;49.02
33109;HTU21D;19481;51.118;6.940;2023-05-14T22:06:48;16.01;49.43
33109;HTU21D;19481;51.118;6.940;2023-05-14T22:11:49;15.96;49.59
33109;HTU21D;19481;51.118;6.940;2023-05-14T22:16:52;15.71;50.46
33109;HTU21D;19481;51.118;6.940;2023-05-14T22:21:54;15.60;50.50
33109;HTU21D;19481;51.118;6.940;2023-05-14T22:26:55;15.48;50.85
33109;HTU21D;19481;51.118;6.940;2023-05-14T22:31:58;15.32;51.29
33109;HTU21D;19481;51.118;6.940;2023-05-14T22:37:00;15.24;51.46
33109;HTU21D;19481;51.118;6.940;2023-05-14T22:42:02;15.00;52.22
33109;HTU21D;19481;51.118;6.940;2023-05-14T22:47:05;14.96;52.21
33109;HTU21D;19481;51.118;6.940;2023-05-14T22:52:07;14.73;52.79
33109;HTU21D;19481;51.118;6.940;2023-05-14T22:57:08;14.70;52.53
33109;HTU21D;19481;51.118;6.940;2023-05-14T23:02:11;14.62;52.71
33109;HTU21D;19481;51.118;6.940;2023-05-14T23:07:14;14.41;53.28
33109;HTU21D;19481;51.118;6.940;2023-05-14T23:12:15;14.22;53.85
33109;HTU21D;19481;51.118;6.940;2023-05-14T23:17:19;14.29;53.34
33109;HTU21D;19481;51.118;6.940;2023-05-14T23:22:20;14.18;53.66
33109;HTU21D;19481;51.118;6.940;2023-05-14T23:27:22;14.05;53.90
33109;HTU21D;19481;51.118;6.940;2023-05-14T23:32:25;13.84;54.68
33109;HTU21D;19481;51.118;6.940;2023-05-14T23:37:26;13.73;54.80
33109;HTU21D;19481;51.118;6.940;2023-05-14T23:42:28;13.62;55.10
33109;HTU21D;19481;51.118;6.940;2023-05-14T23:47:31;13.45;55.51
33109;HTU21D;19481;51.118;6.940;2023-05-14T23:52:33;13.37;55.67
33109;HTU21D;19481;51.118;6.940;2023-05-14T23:57:35;13.37;55.72
